createdAt,value
2023-02-04T00:05:05.537Z,102853.66
2023-02-04T00:10:20.648Z,102851.16
2023-02-04T00:15:35.586Z,102855.47
2023-02-04T00:20:50.628Z,102858.56
2023-02-04T00:26:05.572Z,102861.81
2023-02-04T00:31:20.908Z,102868.47
2023-02-04T00:36:36.511Z,102876.81
2023-02-04T00:41:52.567Z,102882.50
2023-02-04T00:47:07.595Z,102885.56
2023-02-04T00:52:22.574Z,102889.75
2023-02-04T00:57:37.533Z,102890.53
2023-02-04T01:02:52.921Z,102887.91
2023-02-04T01:08:08.535Z,102883.56
2023-02-04T01:13:23.880Z,102895.78
2023-02-04T01:18:39.516Z,102899.81
2023-02-04T01:23:54.622Z,102903.34
2023-02-04T01:29:09.662Z,102923.09
2023-02-04T01:34:25.580Z,102929.28
2023-02-04T01:39:40.562Z,102935.16
2023-02-04T01:44:55.915Z,102949.84
2023-02-04T01:50:11.559Z,102949.06
2023-02-04T01:55:26.517Z,102948.28
2023-02-04T02:00:41.943Z,102953.84
2023-02-04T02:05:57.561Z,102956.63
2023-02-04T02:11:12.526Z,102964.19
2023-02-04T02:16:28.058Z,102974.06
2023-02-04T02:21:44.833Z,102964.50
2023-02-04T02:27:00.608Z,102967.75
2023-02-04T02:32:15.575Z,102967.75
2023-02-04T02:37:30.937Z,102974.53
2023-02-04T02:42:47.299Z,102976.06
2023-02-04T02:48:02.552Z,102969.75
2023-02-04T02:53:17.554Z,102971.75
2023-02-04T02:58:32.587Z,102966.97
2023-02-04T03:03:48.548Z,102974.53
2023-02-04T03:09:03.570Z,102979.31
2023-02-04T03:14:19.608Z,102988.88
2023-02-04T03:19:35.523Z,102991.66
2023-02-04T03:24:50.298Z,102995.25
2023-02-04T03:30:05.582Z,103011.44
2023-02-04T03:35:20.517Z,103018.53
2023-02-04T03:40:35.565Z,103011.44
2023-02-04T03:45:50.536Z,103017.75
2023-02-04T03:51:05.534Z,103010.19
2023-02-04T03:56:20.590Z,103012.97
2023-02-04T04:01:35.546Z,103006.66
2023-02-04T04:06:50.531Z,103006.66
2023-02-04T04:12:05.587Z,103024.88
2023-02-04T04:17:20.871Z,103026.09
2023-02-04T04:22:36.565Z,103018.38
2023-02-04T04:27:51.550Z,103025.94
2023-02-04T04:33:06.584Z,103018.09
2023-02-04T04:38:21.594Z,103024.09
2023-02-04T04:43:36.538Z,103031.22
2023-02-04T04:48:51.551Z,103025.66
2023-02-04T04:54:06.897Z,103022.88
2023-02-04T04:59:22.855Z,103032.44
2023-02-04T05:04:38.598Z,103034.00
2023-02-04T05:09:53.596Z,103052.66
2023-02-04T05:15:08.314Z,103045.09
2023-02-04T05:20:23.772Z,103057.00
2023-02-04T05:25:39.887Z,103057.00
2023-02-04T05:30:55.597Z,103059.00
2023-02-04T05:36:10.548Z,103056.22
2023-02-04T05:41:25.589Z,103056.50
2023-02-04T05:46:40.558Z,103053.72
2023-02-04T05:51:55.313Z,103053.44
2023-02-04T05:57:10.549Z,103062.06
2023-02-04T06:02:25.580Z,103077.09
2023-02-04T06:07:40.609Z,103080.63
2023-02-04T06:12:55.676Z,103084.94
2023-02-04T06:18:10.900Z,103093.63
2023-02-04T06:23:26.613Z,103093.50
2023-02-04T06:28:41.622Z,103098.69
2023-02-04T06:33:56.583Z,103092.72
2023-02-04T06:39:11.848Z,103113.38
2023-02-04T06:44:27.570Z,103124.84
2023-02-04T06:49:42.535Z,103135.59
2023-02-04T06:54:57.561Z,103142.09
2023-02-04T07:00:12.575Z,103154.13
2023-02-04T07:05:27.570Z,103156.16
2023-02-04T07:10:42.557Z,103162.13
2023-02-04T07:15:57.644Z,103172.00
2023-02-04T07:21:12.661Z,103166.78
2023-02-04T07:26:28.589Z,103186.56
2023-02-04T07:31:43.787Z,103175.13
2023-02-04T07:36:58.679Z,103184.34
2023-02-04T07:42:13.543Z,103202.25
2023-02-04T07:47:35.541Z,103210.28
2023-02-04T07:52:50.549Z,103206.44
2023-02-04T07:58:05.535Z,103208.41
2023-02-04T08:03:20.644Z,103227.53
2023-02-04T08:08:35.597Z,103229.25
2023-02-04T08:13:51.637Z,103239.22
2023-02-04T08:19:06.657Z,103241.69
2023-02-04T08:24:21.600Z,103241.38
2023-02-04T08:29:36.573Z,103250.59
2023-02-04T08:34:51.572Z,103246.25
2023-02-04T08:40:06.558Z,103253.06
2023-02-04T08:45:21.752Z,103252.75
2023-02-04T08:50:39.080Z,103256.28
2023-02-04T08:55:54.346Z,103262.28
2023-02-04T09:01:10.985Z,103260.75
2023-02-04T09:06:26.541Z,103273.06
2023-02-04T09:11:41.599Z,103275.50
2023-02-04T09:16:56.568Z,103270.44
2023-02-04T09:22:11.953Z,103273.66
2023-02-04T09:27:27.435Z,103274.88
2023-02-04T09:32:42.961Z,103279.31
2023-02-04T09:37:58.573Z,103286.88
2023-02-04T09:43:13.628Z,103285.31
2023-02-04T09:48:28.645Z,103289.81
2023-02-04T09:53:43.950Z,103292.22
2023-02-04T09:58:59.692Z,103289.91
2023-02-04T10:04:14.607Z,103291.91
2023-02-04T10:09:29.603Z,103293.13
2023-02-04T10:14:44.631Z,103303.47
2023-02-04T10:19:59.622Z,103310.69
2023-02-04T10:25:14.680Z,103298.78
2023-02-04T10:30:29.869Z,103296.16
2023-02-04T10:35:45.621Z,103297.22
2023-02-04T10:41:00.568Z,103303.22
2023-02-04T10:46:15.396Z,103312.81
2023-02-04T10:51:30.621Z,103321.13
2023-02-04T10:56:45.898Z,103316.81
2023-02-04T11:02:01.616Z,103314.44
2023-02-04T11:07:16.627Z,103310.09
2023-02-04T11:12:31.935Z,103313.03
2023-02-04T11:17:47.575Z,103320.91
2023-02-04T11:23:02.595Z,103324.91
2023-02-04T11:28:17.673Z,103321.81
2023-02-04T11:33:32.397Z,103309.13
2023-02-04T11:38:47.367Z,103316.28
2023-02-04T11:44:02.655Z,103303.56
2023-02-04T11:49:17.618Z,103306.34
2023-02-04T11:54:32.554Z,103311.13
2023-02-04T11:59:47.599Z,103311.56
2023-02-04T12:05:02.714Z,103311.56
2023-02-04T12:10:17.693Z,103312.34
2023-02-04T12:15:32.699Z,103306.00
2023-02-04T12:20:48.911Z,103314.03
2023-02-04T12:26:04.615Z,103311.25
2023-02-04T12:31:19.739Z,103312.47
2023-02-04T12:36:34.579Z,103312.47
2023-02-04T12:41:49.410Z,103321.59
2023-02-04T12:47:04.636Z,103322.03
2023-02-04T12:52:19.620Z,103322.03
2023-02-04T12:57:34.924Z,103315.38
2023-02-04T13:02:51.059Z,103312.25
2023-02-04T13:08:06.592Z,103307.81
2023-02-04T13:13:21.557Z,103307.38
2023-02-04T13:18:36.335Z,103304.59
2023-02-04T13:23:51.904Z,103293.50
2023-02-04T13:29:07.957Z,103295.50
2023-02-04T13:34:23.603Z,103291.06
2023-02-04T13:39:38.612Z,103292.25
2023-02-04T13:44:53.968Z,103287.50
2023-02-04T13:50:09.707Z,103282.38
2023-02-04T13:55:25.015Z,103287.50
2023-02-04T14:00:40.973Z,103283.16
2023-02-04T14:05:56.596Z,103286.72
2023-02-04T14:11:11.622Z,103283.16
2023-02-04T14:16:26.615Z,103290.28
2023-02-04T14:21:41.684Z,103295.81
2023-02-04T14:27:34.676Z,103283.94
2023-02-04T14:32:49.619Z,103290.28
2023-02-04T14:38:04.380Z,103297.03
2023-02-04T14:43:19.607Z,103302.59
2023-02-04T14:48:34.359Z,103301.81
2023-02-04T14:53:49.614Z,103292.72
2023-02-04T14:59:04.553Z,103289.94
2023-02-04T15:04:19.658Z,103294.50
2023-02-04T15:09:34.565Z,103312.16
2023-02-04T15:14:49.957Z,103314.13
2023-02-04T15:20:05.598Z,103314.91
2023-02-04T15:25:20.349Z,103317.25
2023-02-04T15:30:35.996Z,103313.69
2023-02-04T15:35:51.998Z,103326.03
2023-02-04T15:41:07.907Z,103330.34
2023-02-04T15:46:23.754Z,103335.47
2023-02-04T15:51:38.688Z,103319.59
2023-02-04T15:56:53.352Z,103319.25
2023-02-04T16:02:08.363Z,103319.25
2023-02-04T16:07:23.661Z,103320.47
2023-02-04T16:12:39.084Z,103317.69
2023-02-04T16:17:54.681Z,103318.13
2023-02-04T16:23:09.583Z,103327.38
2023-02-04T16:28:25.368Z,103332.03
2023-02-04T16:33:40.646Z,103339.56
2023-02-04T16:38:55.592Z,103348.69
2023-02-04T16:44:10.622Z,103346.69
2023-02-04T16:49:25.566Z,103348.69
2023-02-04T16:54:40.641Z,103355.44
2023-02-04T16:59:55.861Z,103349.91
2023-02-04T17:05:11.654Z,103366.56
2023-02-04T17:10:26.646Z,103358.22
2023-02-04T17:15:41.946Z,103363.78
2023-02-04T17:20:58.016Z,103360.22
2023-02-04T17:26:13.605Z,103378.00
2023-02-04T17:31:28.675Z,103371.22
2023-02-04T17:36:43.596Z,103381.13
2023-02-04T17:41:58.567Z,103379.56
2023-02-04T17:47:13.637Z,103388.66
2023-02-04T17:52:28.603Z,103395.00
2023-02-04T17:57:43.642Z,103388.31
2023-02-04T18:02:58.960Z,103391.88
2023-02-04T18:08:14.663Z,103402.22
2023-02-04T18:13:29.628Z,103393.09
2023-02-04T18:18:44.649Z,103388.31
2023-02-04T18:24:01.188Z,103393.53
2023-02-04T18:29:16.723Z,103394.75
2023-02-04T18:34:31.658Z,103397.09
2023-02-04T18:39:46.662Z,103395.09
2023-02-04T18:45:01.599Z,103400.31
2023-02-04T18:50:16.668Z,103396.31
2023-02-04T18:55:32.637Z,103408.63
2023-02-04T19:00:47.671Z,103405.09
2023-02-04T19:06:02.649Z,103400.78
2023-02-04T19:11:17.700Z,103404.75
2023-02-04T19:16:32.687Z,103402.41
2023-02-04T19:21:47.925Z,103410.72
2023-02-04T19:27:03.630Z,103412.75
2023-02-04T19:32:18.605Z,103416.44
2023-02-04T19:37:33.896Z,103417.75
2023-02-04T19:42:50.080Z,103419.09
2023-02-04T19:48:05.636Z,103408.56
2023-02-04T19:53:20.708Z,103408.75
2023-02-04T19:58:36.612Z,103403.84
2023-02-04T20:03:51.644Z,103405.78
2023-02-04T20:09:06.620Z,103398.09
2023-02-04T20:14:21.597Z,103392.44
2023-02-04T20:19:36.748Z,103380.41
2023-02-04T20:24:51.656Z,103375.50
2023-02-04T20:30:06.580Z,103373.84
2023-02-04T20:35:21.646Z,103389.28
2023-02-04T20:40:36.413Z,103397.59
2023-02-04T20:45:51.748Z,103389.50
2023-02-04T20:51:08.108Z,103390.63
2023-02-04T20:56:23.641Z,103394.94
2023-02-04T21:01:38.788Z,103388.47
2023-02-04T21:06:53.674Z,103390.81
2023-02-04T21:12:08.696Z,103380.47
2023-02-04T21:17:23.684Z,103367.38
2023-02-04T21:22:38.923Z,103373.25
2023-02-04T21:27:54.731Z,103367.25
2023-02-04T21:33:09.631Z,103361.69
2023-02-04T21:38:25.059Z,103359.69
2023-02-04T21:43:40.641Z,103357.97
2023-02-04T21:48:56.087Z,103359.88
2023-02-04T21:54:11.606Z,103363.28
2023-02-04T21:59:26.396Z,103376.00
2023-02-04T22:04:41.675Z,103380.44
2023-02-04T22:09:56.617Z,103385.53
2023-02-04T22:15:11.615Z,103379.31
2023-02-04T22:20:26.616Z,103372.69
2023-02-04T22:25:41.644Z,103379.44
2023-02-04T22:30:57.061Z,103382.69
2023-02-04T22:36:12.654Z,103389.38
2023-02-04T22:41:27.370Z,103366.00
2023-02-04T22:46:42.698Z,103379.22
2023-02-04T22:51:57.690Z,103367.47
2023-02-04T22:57:12.632Z,103375.31
2023-02-04T23:02:27.642Z,103375.31
2023-02-04T23:07:42.964Z,103374.66
2023-02-04T23:12:58.673Z,103366.00
2023-02-04T23:18:13.697Z,103358.56
2023-02-04T23:23:28.654Z,103349.22
2023-02-04T23:28:43.613Z,103347.22
2023-02-04T23:33:58.613Z,103342.88
2023-02-04T23:39:13.662Z,103330.84
2023-02-04T23:44:29.016Z,103301.81
2023-02-04T23:49:44.935Z,103295.47
2023-02-04T23:55:00.711Z,103301.50
